createdAt,value
2018-05-15T00:00:38.806Z,4.60
2018-05-15T00:01:44.323Z,4.80
2018-05-15T00:02:49.853Z,4.70
2018-05-15T00:03:55.366Z,4.90
2018-05-15T00:05:00.874Z,4.50
2018-05-15T00:06:06.391Z,4.80
2018-05-15T00:07:11.910Z,4.40
2018-05-15T00:08:17.424Z,4.70
2018-05-15T00:09:22.938Z,4.80
2018-05-15T00:10:28.462Z,5.00
2018-05-15T00:11:33.971Z,4.90
2018-05-15T00:12:39.488Z,4.60
2018-05-15T00:13:45.000Z,4.60
2018-05-15T00:14:50.521Z,4.80
2018-05-15T00:15:56.040Z,5.20
2018-05-15T00:17:01.566Z,5.00
2018-05-15T00:18:07.068Z,5.10
2018-05-15T00:19:12.590Z,5.20
2018-05-15T00:20:18.102Z,5.60
2018-05-15T00:21:23.626Z,5.30
2018-05-15T00:22:29.129Z,5.20
2018-05-15T00:23:34.643Z,5.40
2018-05-15T00:24:40.232Z,5.80
2018-05-15T00:25:45.677Z,5.30
2018-05-15T00:26:51.262Z,5.30
2018-05-15T00:27:56.732Z,5.40
2018-05-15T00:29:02.224Z,5.80
2018-05-15T00:30:07.742Z,5.60
2018-05-15T00:31:13.261Z,5.60
2018-05-15T00:32:18.773Z,5.50
2018-05-15T00:33:24.292Z,5.40
2018-05-15T00:34:29.804Z,5.70
2018-05-15T00:35:35.324Z,5.70
2018-05-15T00:36:40.838Z,5.90
2018-05-15T00:37:46.351Z,5.60
2018-05-15T00:38:51.874Z,5.40
2018-05-15T00:39:57.384Z,5.20
2018-05-15T00:41:02.897Z,5.20
2018-05-15T00:42:08.417Z,5.30
2018-05-15T00:43:13.931Z,5.30
2018-05-15T00:44:19.553Z,5.30
2018-05-15T00:45:24.961Z,5.30
2018-05-15T00:46:30.479Z,5.70
2018-05-15T00:47:36.000Z,5.50
2018-05-15T00:48:41.519Z,5.70
2018-05-15T00:49:47.032Z,5.30
2018-05-15T00:50:52.540Z,5.90
2018-05-15T00:51:58.051Z,5.50
2018-05-15T00:53:03.572Z,5.10
2018-05-15T00:54:09.087Z,5.70
2018-05-15T00:55:14.612Z,5.80
2018-05-15T00:56:20.115Z,6.10
2018-05-15T00:57:25.637Z,5.80
2018-05-15T00:58:31.144Z,5.20
2018-05-15T00:59:36.806Z,5.10
2018-05-15T01:00:42.177Z,5.50
2018-05-15T01:01:47.691Z,5.80
2018-05-15T01:02:53.253Z,5.50
2018-05-15T01:03:58.719Z,5.90
2018-05-15T01:05:04.292Z,5.40
2018-05-15T01:06:09.759Z,5.20
2018-05-15T01:07:15.271Z,5.30
2018-05-15T01:08:20.792Z,5.20
2018-05-15T01:09:26.300Z,5.40
2018-05-15T01:10:31.819Z,5.70
2018-05-15T01:11:37.330Z,5.90
2018-05-15T01:12:42.848Z,5.40
2018-05-15T01:13:48.362Z,5.40
2018-05-15T01:14:53.878Z,5.60
2018-05-15T01:15:59.385Z,5.20
2018-05-15T01:17:04.925Z,5.50
2018-05-15T01:18:10.434Z,5.40
2018-05-15T01:19:15.931Z,5.70
2018-05-15T01:20:21.452Z,5.60
2018-05-15T01:21:26.961Z,5.50
2018-05-15T01:22:32.477Z,6.10
2018-05-15T01:23:37.995Z,5.90
2018-05-15T01:24:43.510Z,5.90
2018-05-15T01:25:49.027Z,5.80
2018-05-15T01:26:54.542Z,5.50
2018-05-15T01:28:00.055Z,5.50
2018-05-15T01:29:05.576Z,5.30
2018-05-15T01:30:11.092Z,5.80
2018-05-15T01:31:16.595Z,5.80
2018-05-15T01:32:22.113Z,6.10
2018-05-15T01:33:27.628Z,6.40
2018-05-15T01:34:33.142Z,5.70
2018-05-15T01:35:38.661Z,5.70
2018-05-15T01:36:44.179Z,6.00
2018-05-15T01:37:49.726Z,5.60
2018-05-15T01:38:55.200Z,6.10
2018-05-15T01:40:00.738Z,5.90
2018-05-15T01:41:06.229Z,5.40
2018-05-15T01:42:11.746Z,5.80
2018-05-15T01:43:17.286Z,5.60
2018-05-15T01:44:22.775Z,5.60
2018-05-15T01:45:28.290Z,5.90
2018-05-15T01:46:33.805Z,6.10
2018-05-15T01:47:39.324Z,5.80
2018-05-15T01:48:44.839Z,6.30
2018-05-15T01:49:50.349Z,6.10
2018-05-15T01:50:55.870Z,6.20
2018-05-15T01:52:01.380Z,6.50
2018-05-15T01:53:06.889Z,6.70
2018-05-15T01:54:12.406Z,6.70
2018-05-15T01:55:17.919Z,6.90
2018-05-15T01:56:23.435Z,6.60
2018-05-15T01:57:28.964Z,6.70
2018-05-15T01:58:34.461Z,6.20
2018-05-15T01:59:39.985Z,6.60
2018-05-15T02:00:45.505Z,6.30
2018-05-15T02:01:51.004Z,6.20
2018-05-15T02:02:56.521Z,6.30
2018-05-15T02:04:02.035Z,6.10
2018-05-15T02:05:07.556Z,6.00
2018-05-15T02:06:13.066Z,6.50
2018-05-15T02:07:18.593Z,5.90
2018-05-15T02:08:24.098Z,6.10
2018-05-15T02:09:29.610Z,6.30
2018-05-15T02:10:35.127Z,6.10
2018-05-15T02:11:40.638Z,6.40
2018-05-15T02:12:46.157Z,6.20
2018-05-15T02:13:51.668Z,6.40
2018-05-15T02:14:57.181Z,6.30
2018-05-15T02:16:02.703Z,6.10
2018-05-15T02:17:08.213Z,6.10
2018-05-15T02:18:13.735Z,6.40
2018-05-15T02:19:19.235Z,5.90
2018-05-15T02:20:24.791Z,5.80
2018-05-15T02:21:30.265Z,5.80
2018-05-15T02:22:35.782Z,5.80
2018-05-15T02:23:41.405Z,5.90
2018-05-15T02:24:46.815Z,5.80
2018-05-15T02:25:52.325Z,5.80
2018-05-15T02:26:57.837Z,6.00
2018-05-15T02:28:03.367Z,6.00
2018-05-15T02:29:08.880Z,6.40
2018-05-15T02:30:14.385Z,6.00
2018-05-15T02:31:19.899Z,6.10
2018-05-15T02:32:25.416Z,5.80
2018-05-15T02:33:30.923Z,6.10
2018-05-15T02:34:36.445Z,6.10
2018-05-15T02:35:41.957Z,5.90
2018-05-15T02:36:47.466Z,7.00
2018-05-15T02:37:52.988Z,6.40
2018-05-15T02:38:58.498Z,6.60
2018-05-15T02:40:04.012Z,7.00
2018-05-15T02:41:09.530Z,6.50
2018-05-15T02:42:15.050Z,6.60
2018-05-15T02:43:20.567Z,6.90
2018-05-15T02:44:26.073Z,6.60
2018-05-15T02:45:31.580Z,6.70
2018-05-15T02:46:37.104Z,6.40
2018-05-15T02:47:42.618Z,6.70
2018-05-15T02:48:48.137Z,6.40
2018-05-15T02:49:53.638Z,6.60
2018-05-15T02:50:59.173Z,7.20
2018-05-15T02:52:04.668Z,6.90
2018-05-15T02:53:10.215Z,6.40
2018-05-15T02:54:15.697Z,6.50
2018-05-15T02:55:21.211Z,6.40
2018-05-15T02:56:26.736Z,6.20
2018-05-15T02:57:32.237Z,6.30
2018-05-15T02:58:37.754Z,6.20
2018-05-15T02:59:43.267Z,6.20
2018-05-15T03:00:48.788Z,6.80
2018-05-15T03:01:54.297Z,6.30
2018-05-15T03:02:59.819Z,6.90
2018-05-15T03:04:05.333Z,6.50
2018-05-15T03:05:10.841Z,7.10
2018-05-15T03:06:16.353Z,6.70
2018-05-15T03:07:21.869Z,6.60
2018-05-15T03:08:27.377Z,6.00
2018-05-15T03:09:32.891Z,6.30
2018-05-15T03:10:38.405Z,6.60
2018-05-15T03:11:43.955Z,6.30
2018-05-15T03:12:49.450Z,6.40
2018-05-15T03:13:54.947Z,6.50
2018-05-15T03:15:00.469Z,6.20
2018-05-15T03:16:05.980Z,6.30
2018-05-15T03:17:11.492Z,6.20
2018-05-15T03:18:17.010Z,6.40
2018-05-15T03:19:22.518Z,6.30
2018-05-15T03:20:28.032Z,6.50
2018-05-15T03:21:33.546Z,6.40
2018-05-15T03:22:39.066Z,6.60
2018-05-15T03:23:44.574Z,6.70
2018-05-15T03:24:50.083Z,6.50
2018-05-15T03:25:55.605Z,6.60
2018-05-15T03:27:01.113Z,6.40
2018-05-15T03:28:06.630Z,6.70
2018-05-15T03:29:12.236Z,6.30
2018-05-15T03:30:17.651Z,6.40
2018-05-15T03:31:23.167Z,6.40
2018-05-15T03:32:28.689Z,6.80
2018-05-15T03:33:34.195Z,6.60
2018-05-15T03:34:39.706Z,6.30
2018-05-15T03:35:45.219Z,6.50
2018-05-15T03:36:50.749Z,6.20
2018-05-15T03:37:56.249Z,6.30
2018-05-15T03:39:01.824Z,6.40
2018-05-15T03:40:07.279Z,6.70
2018-05-15T03:41:12.788Z,6.30
2018-05-15T03:42:18.308Z,6.60
2018-05-15T03:43:23.818Z,6.70
2018-05-15T03:44:29.338Z,6.70
2018-05-15T03:45:34.849Z,7.30
2018-05-15T03:46:40.366Z,6.70
2018-05-15T03:47:45.873Z,6.50
2018-05-15T03:48:51.395Z,7.30
2018-05-15T03:49:56.896Z,7.20
2018-05-15T03:51:02.417Z,6.90
2018-05-15T03:52:07.925Z,7.60
2018-05-15T03:53:13.440Z,7.00
2018-05-15T03:54:18.954Z,7.30
2018-05-15T03:55:24.465Z,7.40
2018-05-15T03:56:29.976Z,6.70
2018-05-15T03:57:35.495Z,7.30
2018-05-15T03:58:41.008Z,7.10
2018-05-15T03:59:46.525Z,7.00
2018-05-15T04:00:52.032Z,6.90
2018-05-15T04:01:57.556Z,6.90
2018-05-15T04:03:03.075Z,7.10
2018-05-15T04:04:08.574Z,6.90
2018-05-15T04:05:14.088Z,6.80
2018-05-15T04:06:19.598Z,7.60
2018-05-15T04:07:25.115Z,7.40
2018-05-15T04:08:30.709Z,7.10
2018-05-15T04:09:36.139Z,7.20
2018-05-15T04:10:41.654Z,6.80
2018-05-15T04:11:47.181Z,7.10
2018-05-15T04:12:52.683Z,7.40
2018-05-15T04:13:58.196Z,7.30
2018-05-15T04:15:03.707Z,7.50
2018-05-15T04:16:09.235Z,7.10
2018-05-15T04:17:14.888Z,7.20
2018-05-15T04:18:20.259Z,7.00
2018-05-15T04:19:25.853Z,7.10
2018-05-15T04:20:31.292Z,6.80
2018-05-15T04:21:36.806Z,6.50
2018-05-15T04:22:42.319Z,6.60
2018-05-15T04:23:48.187Z,6.90
2018-05-15T04:24:53.336Z,6.90
2018-05-15T04:25:58.842Z,7.00
2018-05-15T04:27:04.398Z,7.30
2018-05-15T04:28:09.882Z,7.30
2018-05-15T04:29:15.400Z,7.30
2018-05-15T04:30:20.912Z,7.50
2018-05-15T04:31:26.415Z,7.50
2018-05-15T04:32:31.932Z,7.10
2018-05-15T04:33:37.603Z,7.30
2018-05-15T04:34:42.965Z,7.30
2018-05-15T04:35:48.465Z,7.40
2018-05-15T04:36:53.980Z,7.30
2018-05-15T04:37:59.490Z,7.30
2018-05-15T04:39:05.031Z,7.00
2018-05-15T04:40:10.519Z,7.40
2018-05-15T04:41:16.045Z,7.20
2018-05-15T04:42:21.558Z,7.40
2018-05-15T04:43:27.134Z,7.30
2018-05-15T04:44:32.579Z,7.10
2018-05-15T04:45:38.090Z,7.40
2018-05-15T04:46:43.607Z,7.00
2018-05-15T04:47:49.117Z,6.90
2018-05-15T04:48:54.636Z,7.20
2018-05-15T04:50:00.146Z,6.90
2018-05-15T04:51:05.657Z,7.20
2018-05-15T04:52:11.166Z,7.80
2018-05-15T04:53:16.679Z,7.60
2018-05-15T04:54:22.195Z,6.90
2018-05-15T04:55:27.708Z,7.60
2018-05-15T04:56:33.221Z,7.20
2018-05-15T04:57:38.732Z,7.40
2018-05-15T04:58:44.250Z,7.50
2018-05-15T04:59:49.761Z,7.30
2018-05-15T05:00:55.270Z,7.90
2018-05-15T05:02:00.828Z,7.70
2018-05-15T05:03:06.297Z,7.00
2018-05-15T05:04:11.827Z,7.40
2018-05-15T05:05:17.328Z,6.80
2018-05-15T05:06:22.837Z,7.60
2018-05-15T05:07:28.359Z,7.40
2018-05-15T05:08:33.884Z,7.60
2018-05-15T05:09:39.385Z,7.40
2018-05-15T05:10:44.895Z,7.50
2018-05-15T05:11:50.482Z,7.50
2018-05-15T05:12:55.924Z,7.70
2018-05-15T05:14:01.431Z,7.70
2018-05-15T05:15:06.946Z,7.70
2018-05-15T05:16:12.468Z,7.80
2018-05-15T05:17:17.979Z,8.20
2018-05-15T05:18:23.502Z,7.90
2018-05-15T05:19:29.005Z,7.90
2018-05-15T05:20:34.523Z,7.60
2018-05-15T05:21:40.027Z,8.10
2018-05-15T05:22:45.545Z,8.00
2018-05-15T05:23:51.062Z,8.70
2018-05-15T05:24:56.578Z,7.70
2018-05-15T05:26:02.081Z,8.40
2018-05-15T05:27:07.686Z,8.40
2018-05-15T05:28:13.109Z,8.10
2018-05-15T05:29:18.628Z,8.40
2018-05-15T05:30:24.149Z,8.50
2018-05-15T05:31:29.648Z,7.80
2018-05-15T05:32:35.163Z,8.30
2018-05-15T05:33:40.686Z,8.10
2018-05-15T05:34:46.277Z,8.30
2018-05-15T05:35:51.713Z,8.20
2018-05-15T05:36:57.223Z,8.20
2018-05-15T05:38:02.892Z,8.60
2018-05-15T05:39:08.248Z,8.90
2018-05-15T05:40:14.060Z,8.30
2018-05-15T05:41:19.278Z,8.70
2018-05-15T05:42:24.791Z,8.30
2018-05-15T05:43:30.303Z,8.40
2018-05-15T05:44:35.820Z,8.60
2018-05-15T05:45:41.331Z,8.70
2018-05-15T05:46:46.851Z,8.60
2018-05-15T05:47:52.381Z,11.00
2018-05-15T05:48:57.879Z,8.40
2018-05-15T05:50:03.387Z,8.30
2018-05-15T05:51:08.903Z,7.80
2018-05-15T05:52:14.413Z,8.00
2018-05-15T05:53:19.931Z,7.90
2018-05-15T05:54:25.458Z,7.40
2018-05-15T05:55:30.961Z,7.90
2018-05-15T05:56:36.470Z,8.30
2018-05-15T05:57:41.985Z,7.30
2018-05-15T05:58:47.502Z,7.40
2018-05-15T05:59:53.017Z,7.00
2018-05-15T06:00:58.527Z,7.30
2018-05-15T06:02:04.049Z,7.60
2018-05-15T06:03:09.569Z,7.20
2018-05-15T06:04:15.079Z,7.40
2018-05-15T06:05:20.591Z,6.80
2018-05-15T06:06:26.118Z,7.30
2018-05-15T06:07:31.620Z,6.80
2018-05-15T06:08:37.136Z,7.90
2018-05-15T06:09:42.645Z,6.90
2018-05-15T06:10:48.155Z,7.00
2018-05-15T06:11:53.678Z,7.30
2018-05-15T06:12:59.190Z,7.00
2018-05-15T06:14:04.710Z,7.00
2018-05-15T06:15:10.226Z,7.30
2018-05-15T06:16:15.739Z,6.90
2018-05-15T06:17:21.256Z,6.50
2018-05-15T06:18:26.851Z,6.90
2018-05-15T06:19:32.284Z,7.40
2018-05-15T06:20:37.811Z,7.10
2018-05-15T06:21:43.311Z,7.00
2018-05-15T06:22:48.833Z,6.70
2018-05-15T06:23:54.346Z,6.90
2018-05-15T06:24:59.859Z,6.20
2018-05-15T06:26:05.366Z,6.60
2018-05-15T06:27:10.880Z,6.90
2018-05-15T06:28:16.399Z,6.20
2018-05-15T06:29:21.914Z,6.40
2018-05-15T06:30:27.429Z,6.10
2018-05-15T06:31:32.942Z,6.40
2018-05-15T06:32:38.464Z,6.60
2018-05-15T06:33:43.978Z,5.60
2018-05-15T06:34:49.490Z,6.60
2018-05-15T06:35:55.007Z,6.30
2018-05-15T06:37:00.523Z,6.70
2018-05-15T06:38:06.033Z,6.70
2018-05-15T06:39:11.559Z,6.50
2018-05-15T06:40:17.068Z,6.60
2018-05-15T06:41:22.582Z,6.60
2018-05-15T06:42:28.106Z,6.40
2018-05-15T06:43:33.630Z,6.90
2018-05-15T06:44:39.165Z,6.50
2018-05-15T06:45:44.642Z,6.60
2018-05-15T06:46:50.166Z,6.60
2018-05-15T06:47:55.679Z,6.60
2018-05-15T06:49:01.193Z,6.40
2018-05-15T06:50:06.721Z,6.90
2018-05-15T06:51:12.227Z,6.90
2018-05-15T06:52:17.743Z,6.40
2018-05-15T06:53:23.258Z,6.60
2018-05-15T06:54:28.766Z,6.60
2018-05-15T06:55:34.395Z,6.60
2018-05-15T06:56:39.800Z,6.40
2018-05-15T06:57:45.326Z,6.50
2018-05-15T06:58:50.849Z,6.50
2018-05-15T06:59:56.357Z,6.80
2018-05-15T07:01:01.873Z,6.80
2018-05-15T07:02:07.376Z,6.80
2018-05-15T07:03:12.894Z,6.70
2018-05-15T07:04:18.412Z,7.00
2018-05-15T07:05:24.511Z,6.60
2018-05-15T07:06:29.447Z,6.80
2018-05-15T07:07:34.957Z,6.40
2018-05-15T07:08:40.481Z,6.60
2018-05-15T07:09:45.992Z,6.00
2018-05-15T07:10:51.515Z,6.70
2018-05-15T07:11:57.028Z,6.40
2018-05-15T07:13:02.542Z,6.40
2018-05-15T07:14:08.168Z,6.10
2018-05-15T07:15:13.577Z,6.90
2018-05-15T07:16:19.098Z,6.30
2018-05-15T07:17:24.606Z,6.50
2018-05-15T07:18:30.123Z,6.50
2018-05-15T07:19:35.735Z,6.30
2018-05-15T07:20:41.169Z,6.40
2018-05-15T07:21:46.676Z,6.30
2018-05-15T07:22:52.187Z,6.50
2018-05-15T07:23:57.699Z,6.50
2018-05-15T07:25:03.215Z,6.00
2018-05-15T07:26:08.738Z,6.20
2018-05-15T07:27:14.313Z,6.10
2018-05-15T07:28:19.768Z,5.90
2018-05-15T07:29:25.283Z,6.60
2018-05-15T07:30:30.914Z,5.90
2018-05-15T07:31:36.390Z,6.20
2018-05-15T07:32:41.828Z,6.90
2018-05-15T07:33:47.403Z,6.80
2018-05-15T07:34:52.872Z,6.60
2018-05-15T07:35:58.383Z,6.60
2018-05-15T07:37:03.896Z,6.30
2018-05-15T07:38:09.415Z,6.50
2018-05-15T07:39:14.927Z,6.50
2018-05-15T07:40:20.499Z,6.40
2018-05-15T07:41:25.960Z,6.40
2018-05-15T07:42:31.482Z,6.40
2018-05-15T07:43:36.996Z,6.50
2018-05-15T07:44:42.510Z,6.50
2018-05-15T07:45:48.027Z,6.30
2018-05-15T07:46:53.549Z,6.30
2018-05-15T07:47:59.063Z,6.80
2018-05-15T07:49:04.580Z,6.30
2018-05-15T07:50:10.098Z,6.20
2018-05-15T07:51:15.619Z,6.70
2018-05-15T07:52:21.134Z,6.30
2018-05-15T07:53:26.646Z,6.50
2018-05-15T07:54:32.160Z,6.40
2018-05-15T07:55:37.677Z,6.30
2018-05-15T07:56:43.195Z,6.40
2018-05-15T07:57:48.719Z,7.00
2018-05-15T07:58:54.227Z,7.10
2018-05-15T07:59:59.748Z,6.70
2018-05-15T08:01:05.272Z,6.10
2018-05-15T08:02:10.806Z,6.30
2018-05-15T08:03:16.298Z,6.40
2018-05-15T08:04:21.840Z,6.60
2018-05-15T08:05:27.331Z,6.70
2018-05-15T08:06:33.108Z,7.10
2018-05-15T08:07:38.371Z,6.10
2018-05-15T08:08:43.881Z,6.40
2018-05-15T08:09:49.415Z,6.30
2018-05-15T08:10:54.964Z,6.40
2018-05-15T08:12:00.435Z,6.70
2018-05-15T08:13:05.951Z,6.20
2018-05-15T08:14:11.464Z,6.40
2018-05-15T08:15:16.983Z,6.50
2018-05-15T08:16:22.562Z,6.20
2018-05-15T08:17:28.023Z,6.30
2018-05-15T08:18:33.539Z,6.50
2018-05-15T08:19:39.055Z,6.30
2018-05-15T08:20:44.566Z,6.10
2018-05-15T08:21:50.097Z,6.00
2018-05-15T08:22:55.598Z,6.00
2018-05-15T08:24:01.114Z,6.30
2018-05-15T08:25:06.633Z,6.00
2018-05-15T08:26:12.150Z,6.10
2018-05-15T08:27:17.669Z,6.00
2018-05-15T08:28:23.189Z,6.20
2018-05-15T08:29:28.701Z,5.80
2018-05-15T08:30:34.229Z,6.00
2018-05-15T08:31:39.738Z,5.90
2018-05-15T08:32:45.251Z,5.70
2018-05-15T08:33:50.776Z,6.00
2018-05-15T08:34:56.293Z,6.00
2018-05-15T08:36:01.809Z,5.70
2018-05-15T08:37:07.337Z,6.10
2018-05-15T08:38:12.849Z,6.00
2018-05-15T08:39:18.357Z,5.70
2018-05-15T08:40:23.882Z,5.90
2018-05-15T08:41:29.404Z,6.00
2018-05-15T08:42:34.912Z,5.80
2018-05-15T08:43:40.423Z,5.90
2018-05-15T08:44:45.938Z,5.70
2018-05-15T08:45:51.458Z,5.80
2018-05-15T08:46:56.979Z,5.70
2018-05-15T08:48:02.497Z,5.70
2018-05-15T08:49:08.010Z,5.70
2018-05-15T08:50:13.529Z,5.50
2018-05-15T08:51:19.055Z,5.40
2018-05-15T08:52:24.569Z,5.70
2018-05-15T08:53:30.082Z,5.80
2018-05-15T08:54:35.594Z,5.70
2018-05-15T08:55:41.112Z,5.40
2018-05-15T08:56:46.633Z,5.50
2018-05-15T08:57:52.147Z,5.60
2018-05-15T08:58:57.665Z,5.30
2018-05-15T09:00:03.185Z,5.70
2018-05-15T09:01:08.705Z,5.60
2018-05-15T09:02:14.219Z,5.60
2018-05-15T09:03:19.736Z,5.60
2018-05-15T09:04:25.249Z,5.60
2018-05-15T09:05:30.777Z,5.40
2018-05-15T09:06:36.286Z,5.30
2018-05-15T09:07:41.808Z,5.00
2018-05-15T09:08:47.319Z,5.20
2018-05-15T09:09:52.851Z,5.00
2018-05-15T09:10:58.358Z,5.10
2018-05-15T09:12:03.886Z,5.10
2018-05-15T09:13:09.397Z,5.10
2018-05-15T09:14:14.910Z,5.20
2018-05-15T09:15:20.424Z,4.80
2018-05-15T09:16:26.060Z,4.90
2018-05-15T09:17:31.464Z,5.30
2018-05-15T09:18:36.991Z,5.00
2018-05-15T09:19:42.534Z,5.20
2018-05-15T09:20:48.020Z,5.00
2018-05-15T09:21:53.579Z,5.10
2018-05-15T09:22:59.047Z,5.10
2018-05-15T09:24:04.571Z,5.10
2018-05-15T09:25:10.092Z,5.50
2018-05-15T09:26:15.603Z,5.20
2018-05-15T09:27:21.123Z,5.20
2018-05-15T09:28:26.643Z,5.40
2018-05-15T09:29:32.169Z,5.50
2018-05-15T09:30:37.676Z,5.30
2018-05-15T09:31:43.194Z,5.80
2018-05-15T09:32:48.711Z,5.30
2018-05-15T09:33:54.227Z,5.50
2018-05-15T09:34:59.745Z,5.60
2018-05-15T09:36:05.265Z,5.20
2018-05-15T09:37:10.782Z,5.20
2018-05-15T09:38:16.303Z,5.10
2018-05-15T09:39:21.814Z,5.50
2018-05-15T09:40:27.335Z,5.50
2018-05-15T09:41:32.854Z,5.70
2018-05-15T09:42:38.381Z,5.40
2018-05-15T09:43:43.895Z,5.40
2018-05-15T09:44:49.408Z,5.30
2018-05-15T09:45:54.925Z,5.50
2018-05-15T09:47:00.535Z,5.40
2018-05-15T09:48:05.965Z,5.60
2018-05-15T09:49:11.477Z,5.60
2018-05-15T09:50:17.002Z,5.00
2018-05-15T09:51:22.677Z,5.00
2018-05-15T09:52:28.040Z,5.30
2018-05-15T09:53:33.557Z,5.30
2018-05-15T09:54:39.077Z,5.50
2018-05-15T09:55:44.598Z,5.40
2018-05-15T09:56:50.107Z,5.50
2018-05-15T09:57:55.635Z,5.20
2018-05-15T09:59:01.147Z,5.20
2018-05-15T10:00:06.662Z,5.10
2018-05-15T10:01:12.182Z,4.80
2018-05-15T10:02:17.701Z,5.20
2018-05-15T10:03:23.222Z,5.30
2018-05-15T10:04:28.755Z,5.20
2018-05-15T10:05:34.267Z,5.70
2018-05-15T10:06:40.077Z,5.10
2018-05-15T10:07:45.387Z,5.20
2018-05-15T10:08:50.815Z,5.20
2018-05-15T10:09:56.327Z,5.00
2018-05-15T10:11:01.851Z,5.20
2018-05-15T10:12:07.373Z,5.40
2018-05-15T10:13:12.888Z,5.30
2018-05-15T10:14:18.521Z,5.50
2018-05-15T10:15:23.924Z,5.20
2018-05-15T10:16:29.446Z,5.20
2018-05-15T10:17:34.966Z,5.10
2018-05-15T10:18:40.486Z,5.00
2018-05-15T10:19:46.004Z,5.40
2018-05-15T10:20:51.522Z,5.80
2018-05-15T10:21:57.034Z,5.10
2018-05-15T10:23:02.557Z,5.60
2018-05-15T10:24:08.073Z,5.50
2018-05-15T10:25:13.597Z,5.40
2018-05-15T10:26:19.171Z,5.60
2018-05-15T10:27:24.633Z,5.30
2018-05-15T10:28:30.148Z,5.30
2018-05-15T10:29:35.667Z,4.80
2018-05-15T10:30:41.197Z,5.30
2018-05-15T10:31:46.709Z,5.30
2018-05-15T10:32:52.232Z,5.00
2018-05-15T10:33:57.746Z,5.60
2018-05-15T10:35:03.267Z,5.90
2018-05-15T10:36:08.784Z,5.40
2018-05-15T10:37:14.306Z,5.40
2018-05-15T10:38:19.831Z,5.60
2018-05-15T10:39:25.351Z,5.60
2018-05-15T10:40:30.866Z,5.90
2018-05-15T10:41:36.389Z,6.00
2018-05-15T10:42:41.906Z,5.10
2018-05-15T10:43:47.510Z,5.60
2018-05-15T10:44:52.938Z,5.10
2018-05-15T10:45:58.462Z,5.40
2018-05-15T10:47:03.983Z,5.10
2018-05-15T10:48:09.523Z,5.50
2018-05-15T10:49:15.012Z,5.20
2018-05-15T10:50:20.540Z,5.00
2018-05-15T10:51:26.068Z,5.00
2018-05-15T10:52:31.577Z,5.10
2018-05-15T10:53:37.103Z,5.30
2018-05-15T10:54:42.641Z,5.30
2018-05-15T10:55:48.136Z,5.30
2018-05-15T10:56:53.670Z,4.90
2018-05-15T10:57:59.213Z,5.20
2018-05-15T10:59:04.726Z,5.30
2018-05-15T11:00:10.304Z,5.30
2018-05-15T11:01:15.737Z,5.70
2018-05-15T11:02:21.263Z,5.30
2018-05-15T11:03:26.780Z,5.40
2018-05-15T11:04:32.333Z,4.80
2018-05-15T11:05:37.817Z,4.90
2018-05-15T11:06:43.337Z,4.50
2018-05-15T11:07:48.873Z,5.20
2018-05-15T11:08:54.371Z,4.90
2018-05-15T11:09:59.899Z,4.50
2018-05-15T11:11:05.414Z,4.20
2018-05-15T11:12:10.947Z,4.90
2018-05-15T11:13:16.460Z,4.60
2018-05-15T11:14:21.976Z,4.30
2018-05-15T11:15:27.492Z,4.30
2018-05-15T11:16:33.026Z,4.40
2018-05-15T11:17:38.535Z,4.70
2018-05-15T11:18:44.067Z,4.20
2018-05-15T11:19:49.576Z,4.70
2018-05-15T11:20:55.096Z,4.40
2018-05-15T11:22:00.671Z,4.20
2018-05-15T11:23:06.145Z,4.40
2018-05-15T11:24:11.659Z,4.00
2018-05-15T11:25:17.175Z,4.20
2018-05-15T11:26:22.698Z,4.40
2018-05-15T11:27:28.215Z,4.30
2018-05-15T11:28:33.738Z,4.40
2018-05-15T11:29:39.252Z,4.20
2018-05-15T11:30:44.802Z,4.40
2018-05-15T11:31:50.292Z,4.40
2018-05-15T11:32:55.828Z,4.40
2018-05-15T11:34:01.342Z,4.70
2018-05-15T11:35:06.927Z,4.90
2018-05-15T11:36:12.376Z,4.50
2018-05-15T11:37:17.959Z,4.50
2018-05-15T11:38:23.425Z,4.70
2018-05-15T11:39:28.945Z,4.50
2018-05-15T11:40:34.459Z,4.70
2018-05-15T11:41:40.142Z,4.60
2018-05-15T11:42:45.525Z,4.90
2018-05-15T11:43:51.026Z,4.80
2018-05-15T11:44:56.539Z,4.80
2018-05-15T11:46:02.062Z,4.50
2018-05-15T11:47:07.584Z,4.10
2018-05-15T11:48:13.472Z,4.40
2018-05-15T11:49:19.636Z,4.50
2018-05-15T11:50:24.983Z,4.40
2018-05-15T11:51:30.452Z,4.40
2018-05-15T11:52:35.689Z,4.60
2018-05-15T11:53:40.704Z,4.90
2018-05-15T11:54:46.220Z,4.90
2018-05-15T11:55:51.803Z,4.50
2018-05-15T11:56:57.266Z,4.30
2018-05-15T11:58:03.661Z,4.30
2018-05-15T11:59:08.304Z,4.30
2018-05-15T12:00:13.846Z,4.10
2018-05-15T12:01:19.347Z,4.40
2018-05-15T12:02:25.166Z,4.60
2018-05-15T12:03:30.387Z,4.10
2018-05-15T12:04:35.994Z,4.10
2018-05-15T12:05:41.440Z,4.30
2018-05-15T12:06:46.954Z,4.60
2018-05-15T12:07:52.494Z,4.10
2018-05-15T12:08:57.996Z,4.50
2018-05-15T12:10:03.508Z,4.30
2018-05-15T12:11:09.044Z,4.10
2018-05-15T12:12:14.557Z,4.60
2018-05-15T12:13:20.089Z,4.20
2018-05-15T12:14:25.616Z,4.20
2018-05-15T12:15:31.119Z,3.90
2018-05-15T12:16:36.637Z,3.80
2018-05-15T12:17:42.157Z,3.80
2018-05-15T12:18:47.677Z,4.00
2018-05-15T12:19:53.193Z,4.10
2018-05-15T12:20:58.739Z,4.10
2018-05-15T12:22:04.233Z,4.10
2018-05-15T12:23:09.762Z,4.30
2018-05-15T12:24:15.285Z,4.60
2018-05-15T12:25:20.813Z,4.10
2018-05-15T12:26:26.317Z,4.10
2018-05-15T12:27:31.844Z,4.80
2018-05-15T12:28:37.367Z,4.90
2018-05-15T12:29:42.904Z,4.90
2018-05-15T12:30:48.423Z,4.30
2018-05-15T12:31:53.921Z,4.50
2018-05-15T12:32:59.442Z,4.80
2018-05-15T12:34:04.971Z,4.70
2018-05-15T12:35:10.595Z,4.40
2018-05-15T12:36:16.007Z,4.50
2018-05-15T12:37:21.527Z,4.40
2018-05-15T12:38:27.046Z,4.40
2018-05-15T12:39:32.571Z,5.00
2018-05-15T12:40:38.092Z,5.00
2018-05-15T12:41:43.659Z,4.50
2018-05-15T12:42:49.134Z,4.40
2018-05-15T12:43:54.657Z,4.60
2018-05-15T12:45:00.181Z,4.90
2018-05-15T12:46:05.703Z,4.90
2018-05-15T12:47:11.215Z,4.50
2018-05-15T12:48:16.776Z,4.70
2018-05-15T12:49:22.263Z,5.40
2018-05-15T12:50:27.781Z,5.40
2018-05-15T12:51:33.307Z,5.00
2018-05-15T12:52:38.816Z,5.60
2018-05-15T12:53:44.337Z,5.20
2018-05-15T12:54:49.859Z,4.90
2018-05-15T12:55:55.384Z,4.80
2018-05-15T12:57:00.918Z,4.60
2018-05-15T12:58:06.436Z,4.80
2018-05-15T12:59:11.977Z,4.50
2018-05-15T13:00:17.463Z,4.80
2018-05-15T13:01:22.987Z,4.70
2018-05-15T13:02:28.505Z,4.60
2018-05-15T13:03:34.033Z,4.80
2018-05-15T13:04:39.567Z,4.70
2018-05-15T13:05:45.082Z,4.70
2018-05-15T13:06:50.611Z,4.60
2018-05-15T13:07:56.114Z,4.40
2018-05-15T13:09:01.636Z,4.40
2018-05-15T13:10:07.175Z,4.30
2018-05-15T13:11:12.681Z,3.90
2018-05-15T13:12:18.205Z,4.10
2018-05-15T13:13:23.716Z,4.30
2018-05-15T13:14:29.246Z,4.10
2018-05-15T13:15:34.763Z,4.50
2018-05-15T13:16:40.303Z,4.30
2018-05-15T13:17:45.810Z,4.40
2018-05-15T13:18:51.325Z,4.40
2018-05-15T13:19:56.858Z,4.10
2018-05-15T13:21:02.386Z,4.00
2018-05-15T13:22:07.885Z,3.90
2018-05-15T13:23:13.405Z,3.80
2018-05-15T13:24:18.950Z,3.90
2018-05-15T13:25:24.447Z,4.20
2018-05-15T13:26:29.973Z,4.20
2018-05-15T13:27:35.493Z,4.00
2018-05-15T13:28:41.010Z,3.80
2018-05-15T13:29:46.540Z,3.70
2018-05-15T13:30:52.051Z,3.70
2018-05-15T13:31:57.576Z,4.10
2018-05-15T13:33:03.094Z,4.00
2018-05-15T13:34:08.617Z,4.60
2018-05-15T13:35:14.150Z,4.50
2018-05-15T13:36:19.655Z,4.70
2018-05-15T13:37:25.263Z,4.50
2018-05-15T13:38:30.704Z,4.80
2018-05-15T13:39:36.242Z,5.10
2018-05-15T13:40:41.739Z,5.30
2018-05-15T13:41:47.261Z,5.20
2018-05-15T13:42:52.788Z,5.30
2018-05-15T13:43:58.317Z,5.00
2018-05-15T13:45:03.833Z,5.10
2018-05-15T13:46:09.371Z,5.20
2018-05-15T13:47:14.878Z,5.10
2018-05-15T13:48:20.393Z,5.10
2018-05-15T13:49:25.913Z,5.50
2018-05-15T13:50:31.502Z,5.40
2018-05-15T13:51:36.953Z,5.30
2018-05-15T13:52:42.476Z,4.90
2018-05-15T13:53:48.003Z,5.00
2018-05-15T13:54:53.518Z,5.10
2018-05-15T13:55:59.041Z,4.90
2018-05-15T13:57:04.574Z,4.90
2018-05-15T13:58:10.076Z,5.10
2018-05-15T13:59:15.627Z,5.20
2018-05-15T14:00:21.126Z,5.40
2018-05-15T14:01:26.649Z,5.10
2018-05-15T14:02:32.164Z,4.80
2018-05-15T14:03:37.685Z,5.20
2018-05-15T14:04:43.214Z,4.60
2018-05-15T14:05:48.751Z,5.00
2018-05-15T14:06:54.245Z,4.50
2018-05-15T14:07:59.768Z,4.50
2018-05-15T14:09:05.284Z,4.30
2018-05-15T14:10:10.870Z,4.70
2018-05-15T14:11:16.359Z,4.30
2018-05-15T14:12:21.856Z,4.20
2018-05-15T14:13:27.375Z,4.50
2018-05-15T14:14:32.884Z,4.60
2018-05-15T14:15:38.407Z,4.60
2018-05-15T14:16:43.937Z,4.60
2018-05-15T14:17:49.453Z,4.60
2018-05-15T14:18:54.976Z,4.50
2018-05-15T14:20:00.489Z,5.30
2018-05-15T14:21:06.017Z,4.80
2018-05-15T14:22:11.539Z,5.00
2018-05-15T14:23:17.061Z,4.90
2018-05-15T14:24:22.573Z,5.10
2018-05-15T14:25:28.094Z,5.50
2018-05-15T14:26:33.614Z,5.30
2018-05-15T14:27:39.134Z,5.20
2018-05-15T14:28:44.666Z,5.10
2018-05-15T14:29:50.181Z,5.20
2018-05-15T14:30:55.694Z,5.10
2018-05-15T14:32:01.238Z,5.10